Terminal Aerodrome Forecast
Issued by NWS Wilmington, OH

Current Version | Previous Version | Graphics & Text | Print | Product List | Glossary On
Versions: 1 2 3 4 5 6 7 8 9 10 11 12 13 14 15 16 17 18 19
000
FTUS41 KILN 200700 AAA
TAFDAY
TAF AMD
KDAY 200729Z 2007/2106 22006KT P6SM BKN100
     FM201000 21005KT 4SM BR SCT012
     FM201400 27007KT P6SM SCT025
     FM201700 29012G20KT P6SM SCT040
     FM210000 27007KT P6SM SCT100 BKN250=

USA.gov is the U.S. government's official web portal to all federal, state and local government web resources and services.